Time;durP1;ratioP1;P1;durP2;ratioP2;P2;SDS_P1;SDS_P2;PMS_P1;PMS_P2;Temp;Humidity;BMP_temperature;BMP_pressure;BME280_temperature;BME280_humidity;BME280_pressure;Samples;Min_cycle;Max_cycle;Signal;HPM_P1;HPM_P2
2023/04/26 00:02:14;;;;;;;12.57;6.80;;;;;;;;;;4978061;28;20425;-77
2023/04/26 00:04:40;;;;;;;12.40;6.60;;;;;;;;;;4994475;28;20441;-77
2023/04/26 00:07:06;;;;;;;14.93;6.80;;;;;;;;;;4995307;28;20421;-77
2023/04/26 00:09:33;;;;;;;12.40;6.75;;;;;;;;;;5005393;28;20457;-77
2023/04/26 00:11:59;;;;;;;15.17;6.27;;;;;;;;;;5015121;28;20177;-77
2023/04/26 00:14:25;;;;;;;13.80;6.17;;;;;;;;;;5014576;28;20173;-77
2023/04/26 00:16:51;;;;;;;11.88;6.55;;;;;;;;;;5014241;28;20427;-77
2023/04/26 00:19:17;;;;;;;13.27;6.20;;;;;;;;;;4997528;28;20193;-77
2023/04/26 00:21:44;;;;;;;11.50;5.87;;;;;;;;;;5014477;28;20204;-79
2023/04/26 00:24:10;;;;;;;13.60;7.45;;;;;;;;;;5013254;28;20415;-79
2023/04/26 00:26:36;;;;;;;12.13;6.60;;;;;;;;;;5011932;28;20212;-78
2023/04/26 00:29:04;;;;;;;10.13;6.53;;;;;;;;;;5002636;28;20177;-79
2023/04/26 00:31:30;;;;;;;11.93;6.37;;;;;;;;;;5007217;28;20217;-79
2023/04/26 00:33:56;;;;;;;11.03;6.90;;;;;;;;;;4994981;28;20233;-80
2023/04/26 00:36:22;;;;;;;13.67;7.30;;;;;;;;;;5005387;28;20193;-79
2023/04/26 00:38:48;;;;;;;13.55;8.10;;;;;;;;;;5013978;28;20419;-79
2023/04/26 00:41:14;;;;;;;13.70;7.50;;;;;;;;;;5014511;28;20506;-79
2023/04/26 00:43:40;;;;;;;16.80;8.10;;;;;;;;;;5013604;28;20502;-79
2023/04/26 00:46:08;;;;;;;12.98;7.78;;;;;;;;;;5013532;28;20435;-78
2023/04/26 00:48:35;;;;;;;12.00;7.37;;;;;;;;;;5013764;28;20205;-79
2023/04/26 00:51:02;;;;;;;18.07;7.67;;;;;;;;;;5015540;28;20235;-79
2023/04/26 00:53:29;;;;;;;13.70;6.93;;;;;;;;;;4973202;28;20190;-79
2023/04/26 00:55:55;;;;;;;13.37;6.67;;;;;;;;;;5014672;28;20217;-77
2023/04/26 00:58:21;;;;;;;12.97;7.10;;;;;;;;;;4998322;28;20197;-77
2023/04/26 01:00:49;;;;;;;10.73;6.60;;;;;;;;;;4984024;28;20185;-77
2023/04/26 01:03:16;;;;;;;10.27;6.70;;;;;;;;;;4992827;28;20189;-77
2023/04/26 01:05:42;;;;;;;12.47;7.10;;;;;;;;;;5013027;28;20204;-77
2023/04/26 01:08:08;;;;;;;14.55;7.47;;;;;;;;;;5013045;28;20423;-77
2023/04/26 01:10:35;;;;;;;13.03;7.33;;;;;;;;;;5013528;28;20191;-77
2023/04/26 01:13:02;;;;;;;10.83;7.30;;;;;;;;;;4981149;28;20187;-76
2023/04/26 01:15:29;;;;;;;13.83;7.40;;;;;;;;;;5013564;28;20185;-77
2023/04/26 01:17:56;;;;;;;11.77;8.10;;;;;;;;;;5012997;28;20248;-77
2023/04/26 01:20:22;;;;;;;15.13;7.50;;;;;;;;;;4979809;28;20232;-77
2023/04/26 01:22:49;;;;;;;13.43;7.80;;;;;;;;;;4991539;28;20188;-78
2023/04/26 01:25:16;;;;;;;15.13;8.17;;;;;;;;;;4993866;28;20206;-78
2023/04/26 01:27:42;;;;;;;15.10;8.17;;;;;;;;;;5011443;28;20179;-86
2023/04/26 01:30:11;;;;;;;18.57;8.47;;;;;;;;;;4996805;28;20189;-85
2023/04/26 01:32:37;;;;;;;16.17;7.87;;;;;;;;;;4975036;28;20280;-84
2023/04/26 01:35:06;;;;;;;12.33;7.27;;;;;;;;;;4994230;28;20205;-85
2023/04/26 01:37:32;;;;;;;12.30;7.50;;;;;;;;;;4992495;28;20264;-85
2023/04/26 01:39:58;;;;;;;15.47;7.33;;;;;;;;;;4994090;28;20190;-85
2023/04/26 01:42:27;;;;;;;15.90;7.53;;;;;;;;;;4996433;28;20245;-85
2023/04/26 01:44:53;;;;;;;12.93;8.03;;;;;;;;;;4977029;28;20189;-85
2023/04/26 01:47:19;;;;;;;13.03;7.73;;;;;;;;;;4994577;28;20194;-85
2023/04/26 01:49:45;;;;;;;13.07;8.30;;;;;;;;;;5009679;28;20184;-86
2023/04/26 01:52:11;;;;;;;12.97;7.83;;;;;;;;;;4974570;28;20182;-85
2023/04/26 01:54:37;;;;;;;12.43;8.03;;;;;;;;;;4993824;28;20197;-85
2023/04/26 01:57:03;;;;;;;10.87;8.00;;;;;;;;;;4979839;28;20197;-85
2023/04/26 01:59:29;;;;;;;17.33;8.03;;;;;;;;;;4980524;28;20189;-84
2023/04/26 02:01:56;;;;;;;16.30;8.50;;;;;;;;;;4990624;28;20221;-79
2023/04/26 02:04:23;;;;;;;13.23;8.73;;;;;;;;;;5008047;28;20181;-79
2023/04/26 02:06:49;;;;;;;13.80;8.60;;;;;;;;;;4974612;28;20209;-79
2023/04/26 02:09:15;;;;;;;12.73;8.10;;;;;;;;;;5010884;28;20256;-80
2023/04/26 02:11:41;;;;;;;16.53;8.40;;;;;;;;;;4978026;28;20266;-77
2023/04/26 02:14:07;;;;;;;16.00;8.60;;;;;;;;;;5011709;28;20178;-77
2023/04/26 02:16:33;;;;;;;13.60;8.10;;;;;;;;;;4966284;28;20288;-77
2023/04/26 02:18:59;;;;;;;13.80;8.53;;;;;;;;;;4993454;28;20249;-77
2023/04/26 02:21:27;;;;;;;14.40;8.90;;;;;;;;;;5010862;28;20192;-79
2023/04/26 02:23:53;;;;;;;17.03;10.30;;;;;;;;;;4977864;28;20523;-79
2023/04/26 02:26:19;;;;;;;14.90;8.67;;;;;;;;;;4993543;28;20213;-79
2023/04/26 02:28:48;;;;;;;19.40;8.93;;;;;;;;;;4987431;28;20215;-79
2023/04/26 02:31:14;;;;;;;14.57;9.07;;;;;;;;;;4973621;28;20211;-79
2023/04/26 02:33:40;;;;;;;12.63;8.83;;;;;;;;;;4980033;28;20189;-79
2023/04/26 02:36:06;;;;;;;14.90;9.40;;;;;;;;;;4980472;28;20188;-79
2023/04/26 02:38:33;;;;;;;16.73;9.40;;;;;;;;;;4979510;28;20254;-80
2023/04/26 02:41:00;;;;;;;13.00;9.30;;;;;;;;;;5009827;28;20263;-84
2023/04/26 02:43:26;;;;;;;16.33;9.57;;;;;;;;;;5008666;28;20182;-83
2023/04/26 02:45:52;;;;;;;16.83;9.97;;;;;;;;;;4990390;28;20212;-84
2023/04/26 02:48:19;;;;;;;17.33;9.83;;;;;;;;;;4995974;28;20255;-85
2023/04/26 02:50:46;;;;;;;17.10;9.70;;;;;;;;;;5012986;28;20268;-85
2023/04/26 02:53:12;;;;;;;16.53;9.63;;;;;;;;;;5012887;28;20188;-78
2023/04/26 02:55:39;;;;;;;17.07;9.63;;;;;;;;;;5005709;23;20248;-84
2023/04/26 02:58:05;;;;;;;18.67;10.13;;;;;;;;;;4994267;28;20244;-76
2023/04/26 03:00:32;;;;;;;12.97;9.33;;;;;;;;;;4978644;28;20253;-79
2023/04/26 03:02:59;;;;;;;14.47;9.03;;;;;;;;;;4994872;28;20177;-79
2023/04/26 03:05:25;;;;;;;16.50;10.53;;;;;;;;;;4982741;28;20209;-79
2023/04/26 03:07:51;;;;;;;14.37;9.83;;;;;;;;;;4998654;28;20220;-77
2023/04/26 03:10:17;;;;;;;16.93;9.87;;;;;;;;;;4979972;28;20205;-79
2023/04/26 03:12:43;;;;;;;16.73;9.77;;;;;;;;;;4979627;28;20181;-79
2023/04/26 03:15:09;;;;;;;15.90;10.10;;;;;;;;;;4977892;28;20217;-79
2023/04/26 03:17:35;;;;;;;15.70;10.57;;;;;;;;;;4995846;28;20228;-78
2023/04/26 03:20:03;;;;;;;18.83;10.70;;;;;;;;;;5006331;28;20182;-78
2023/04/26 03:22:29;;;;;;;17.90;10.93;;;;;;;;;;4981843;28;20193;-78
2023/04/26 03:24:55;;;;;;;17.57;10.80;;;;;;;;;;4982633;28;20232;-84
2023/04/26 03:27:21;;;;;;;16.70;11.13;;;;;;;;;;5016080;28;20212;-84
2023/04/26 03:29:47;;;;;;;17.87;11.03;;;;;;;;;;5027165;28;20181;-85
2023/04/26 03:32:13;;;;;;;20.23;11.80;;;;;;;;;;4999026;28;20177;-84
2023/04/26 03:34:40;;;;;;;17.47;11.00;;;;;;;;;;4978090;28;20186;-76
2023/04/26 03:37:06;;;;;;;18.37;11.70;;;;;;;;;;4993262;28;20320;-76
2023/04/26 03:39:32;;;;;;;19.13;11.80;;;;;;;;;;5000641;28;20228;-77
2023/04/26 03:41:58;;;;;;;17.93;10.90;;;;;;;;;;4995735;28;20182;-78
2023/04/26 03:44:24;;;;;;;15.50;11.73;;;;;;;;;;5012674;28;20204;-77
2023/04/26 03:46:50;;;;;;;19.53;11.50;;;;;;;;;;5013486;28;20217;-77
2023/04/26 03:49:16;;;;;;;15.50;10.80;;;;;;;;;;5015039;28;20255;-77
2023/04/26 03:51:42;;;;;;;14.97;10.83;;;;;;;;;;5013419;28;20181;-77
2023/04/26 03:54:08;;;;;;;19.17;11.87;;;;;;;;;;5014397;28;20208;-77
2023/04/26 03:56:35;;;;;;;17.67;10.73;;;;;;;;;;5013210;28;20275;-77
2023/04/26 03:59:01;;;;;;;16.47;11.33;;;;;;;;;;5029634;28;20207;-79
2023/04/26 04:01:27;;;;;;;15.97;11.17;;;;;;;;;;5006082;28;20253;-79
2023/04/26 04:03:54;;;;;;;17.13;11.53;;;;;;;;;;5016459;28;20235;-78
2023/04/26 04:06:20;;;;;;;17.67;11.30;;;;;;;;;;5014842;28;20213;-79
2023/04/26 04:08:46;;;;;;;21.20;10.80;;;;;;;;;;5035857;28;20192;-79
2023/04/26 04:11:12;;;;;;;16.10;10.60;;;;;;;;;;4998415;28;20181;-78
2023/04/26 04:13:38;;;;;;;21.83;14.55;;;;;;;;;;5019944;28;20425;-79
2023/04/26 04:16:05;;;;;;;18.87;11.67;;;;;;;;;;5034355;28;20209;-79
2023/04/26 04:18:31;;;;;;;17.87;11.40;;;;;;;;;;5021760;28;20228;-79
2023/04/26 04:20:57;;;;;;;18.40;10.93;;;;;;;;;;5018957;28;20181;-79
2023/04/26 04:23:24;;;;;;;15.27;11.03;;;;;;;;;;4989043;28;20193;-78
2023/04/26 04:25:50;;;;;;;17.30;11.90;;;;;;;;;;5013479;28;20216;-78
2023/04/26 04:28:16;;;;;;;16.60;10.60;;;;;;;;;;5027354;28;20216;-79
2023/04/26 04:30:46;;;;;;;17.30;10.97;;;;;;;;;;5004242;28;20212;-79
2023/04/26 04:33:12;;;;;;;15.63;11.47;;;;;;;;;;5012245;28;20212;-84
2023/04/26 04:35:38;;;;;;;18.27;11.67;;;;;;;;;;5013856;28;20180;-84
2023/04/26 04:38:04;;;;;;;16.53;11.47;;;;;;;;;;5030643;28;20349;-85
2023/04/26 04:40:30;;;;;;;17.20;11.07;;;;;;;;;;5003464;28;20260;-84
2023/04/26 04:42:57;;;;;;;19.70;12.68;;;;;;;;;;5005100;28;20435;-85
2023/04/26 04:45:23;;;;;;;24.45;14.93;;;;;;;;;;5016142;28;20428;-84
2023/04/26 04:47:49;;;;;;;24.33;13.93;;;;;;;;;;5050850;28;20195;-84
2023/04/26 04:50:15;;;;;;;21.97;13.63;;;;;;;;;;5013557;28;20180;-84
2023/04/26 04:52:41;;;;;;;20.43;13.17;;;;;;;;;;5011436;28;20284;-84
2023/04/26 04:55:07;;;;;;;15.97;12.47;;;;;;;;;;5013753;28;20173;-84
2023/04/26 04:57:33;;;;;;;21.33;12.57;;;;;;;;;;5017773;28;20289;-84
2023/04/26 05:00:08;;;;;;;21.33;13.73;;;;;;;;;;4999275;28;20217;-85
2023/04/26 05:02:35;;;;;;;22.40;13.50;;;;;;;;;;4995211;28;20193;-82
2023/04/26 05:05:03;;;;;;;22.17;13.40;;;;;;;;;;5032875;28;20235;-79
2023/04/26 05:07:29;;;;;;;20.93;13.10;;;;;;;;;;4999188;28;20185;-79
2023/04/26 05:09:55;;;;;;;20.43;13.23;;;;;;;;;;5016415;28;20204;-78
2023/04/26 05:12:21;;;;;;;27.20;14.30;;;;;;;;;;5034651;28;20180;-79
2023/04/26 05:14:47;;;;;;;19.67;13.17;;;;;;;;;;5034268;28;20185;-79
2023/04/26 05:17:13;;;;;;;21.35;15.90;;;;;;;;;;5032445;28;20488;-79
2023/04/26 05:19:39;;;;;;;23.90;16.63;;;;;;;;;;5030285;28;20422;-78
2023/04/26 05:22:05;;;;;;;20.23;14.20;;;;;;;;;;5023508;28;20177;-85
2023/04/26 05:24:31;;;;;;;21.53;13.73;;;;;;;;;;4994959;28;20181;-84
2023/04/26 05:26:58;;;;;;;19.93;14.00;;;;;;;;;;5017317;28;20207;-84
2023/04/26 05:29:25;;;;;;;21.37;13.33;;;;;;;;;;5016921;28;20176;-84
2023/04/26 05:31:51;;;;;;;18.23;12.63;;;;;;;;;;5032630;28;20177;-84
2023/04/26 05:34:16;;;;;;;24.97;14.13;;;;;;;;;;5033027;28;20176;-84
2023/04/26 05:36:42;;;;;;;18.87;13.60;;;;;;;;;;5031374;28;20185;-84
2023/04/26 05:39:09;;;;;;;20.10;13.87;;;;;;;;;;5028059;28;20253;-77
2023/04/26 05:41:35;;;;;;;22.00;13.97;;;;;;;;;;5014513;28;20195;-76
2023/04/26 05:44:01;;;;;;;19.87;12.93;;;;;;;;;;5030928;28;20180;-76
2023/04/26 05:46:27;;;;;;;18.80;12.40;;;;;;;;;;5030905;28;20220;-76
2023/04/26 05:48:53;;;;;;;23.97;12.87;;;;;;;;;;5030094;28;20175;-76
2023/04/26 05:51:20;;;;;;;19.33;12.17;;;;;;;;;;5032645;28;20271;-76
2023/04/26 05:53:46;;;;;;;21.10;14.63;;;;;;;;;;5030518;28;20425;-76
2023/04/26 05:56:12;;;;;;;19.67;12.30;;;;;;;;;;5032610;28;20244;-78
2023/04/26 05:58:38;;;;;;;17.13;11.60;;;;;;;;;;5022522;28;20219;-78
2023/04/26 06:01:04;;;;;;;21.25;13.30;;;;;;;;;;4996286;28;20441;-78
2023/04/26 06:03:31;;;;;;;19.07;12.20;;;;;;;;;;5009114;28;20189;-79
2023/04/26 06:05:58;;;;;;;17.85;12.90;;;;;;;;;;5031352;28;20433;-79
2023/04/26 06:08:25;;;;;;;15.83;11.37;;;;;;;;;;5031102;28;20184;-78
2023/04/26 06:10:51;;;;;;;21.42;11.90;;;;;;;;;;5028718;28;20445;-78
2023/04/26 06:13:17;;;;;;;16.90;10.18;;;;;;;;;;4996528;28;20399;-77
2023/04/26 06:15:43;;;;;;;20.07;9.97;;;;;;;;;;5002156;28;20177;-77
2023/04/26 06:18:09;;;;;;;16.25;9.70;;;;;;;;;;4999868;28;20122;-77
2023/04/26 06:20:35;;;;;;;17.07;10.03;;;;;;;;;;4988517;28;20197;-78
2023/04/26 06:23:02;;;;;;;16.97;9.20;;;;;;;;;;4998821;28;20239;-78
2023/04/26 06:25:28;;;;;;;17.07;9.43;;;;;;;;;;5030394;28;20224;-78
2023/04/26 06:27:54;;;;;;;14.03;8.20;;;;;;;;;;5036274;28;20187;-76
2023/04/26 06:30:20;;;;;;;13.30;7.80;;;;;;;;;;5035211;28;20199;-76
2023/04/26 06:32:46;;;;;;;16.33;8.77;;;;;;;;;;5031114;28;20508;-76
2023/04/26 06:35:12;;;;;;;18.00;8.40;;;;;;;;;;5000291;28;20248;-77
2023/04/26 06:37:38;;;;;;;11.30;7.13;;;;;;;;;;5015645;28;20181;-76
2023/04/26 06:40:05;;;;;;;13.00;7.40;;;;;;;;;;5000473;28;20182;-76
2023/04/26 06:42:31;;;;;;;17.08;8.63;;;;;;;;;;5015173;28;20427;-76
2023/04/26 06:44:57;;;;;;;12.83;6.90;;;;;;;;;;5017120;28;20272;-77
2023/04/26 06:47:23;;;;;;;15.73;6.83;;;;;;;;;;5031302;28;20184;-77
2023/04/26 06:49:50;;;;;;;13.73;7.30;;;;;;;;;;5001419;28;20617;-78
2023/04/26 06:52:16;;;;;;;15.75;7.38;;;;;;;;;;4998875;28;20427;-78
2023/04/26 06:54:42;;;;;;;15.40;8.13;;;;;;;;;;5032514;28;20523;-78
2023/04/26 06:57:08;;;;;;;13.82;7.75;;;;;;;;;;5004440;28;20441;-78
2023/04/26 06:59:34;;;;;;;15.93;8.30;;;;;;;;;;5037741;28;20507;-78
2023/04/26 07:02:01;;;;;;;14.83;7.37;;;;;;;;;;5013573;28;20432;-79
2023/04/26 07:04:27;;;;;;;14.32;7.55;;;;;;;;;;5008650;28;20423;-79
2023/04/26 07:06:53;;;;;;;14.40;7.90;;;;;;;;;;5002074;28;20452;-77
2023/04/26 07:09:19;;;;;;;14.30;6.95;;;;;;;;;;4997643;28;20441;-77
2023/04/26 07:11:46;;;;;;;15.13;7.70;;;;;;;;;;5026418;28;20410;-78
2023/04/26 07:14:12;;;;;;;18.02;8.13;;;;;;;;;;5035337;28;20761;-78
2023/04/26 07:16:38;;;;;;;12.65;7.60;;;;;;;;;;4999736;28;20417;-78
2023/04/26 07:19:05;;;;;;;14.03;7.87;;;;;;;;;;5027292;28;20409;-86
2023/04/26 07:21:31;;;;;;;12.27;6.78;;;;;;;;;;5000512;28;20453;-86
2023/04/26 07:23:57;;;;;;;12.85;6.95;;;;;;;;;;5001311;28;20532;-86
2023/04/26 07:26:25;;;;;;;9.75;6.60;;;;;;;;;;5031893;28;20429;-86
2023/04/26 07:28:51;;;;;;;13.32;5.70;;;;;;;;;;5033760;28;20505;-85
2023/04/26 07:31:17;;;;;;;13.98;6.50;;;;;;;;;;5006395;28;20422;-85
2023/04/26 07:33:43;;;;;;;11.00;5.65;;;;;;;;;;5025318;28;20498;-85
2023/04/26 07:36:10;;;;;;;11.85;5.95;;;;;;;;;;5001737;28;20408;-79
2023/04/26 07:38:36;;;;;;;10.52;5.88;;;;;;;;;;5032485;28;20422;-78
2023/04/26 07:41:02;;;;;;;11.80;6.10;;;;;;;;;;5001036;28;20420;-78
2023/04/26 07:43:28;;;;;;;11.45;5.22;;;;;;;;;;5000019;28;20505;-78
2023/04/26 07:45:54;;;;;;;10.30;5.57;;;;;;;;;;5032935;28;20441;-79
2023/04/26 07:48:20;;;;;;;9.85;5.57;;;;;;;;;;5012479;28;20420;-79
2023/04/26 07:50:46;;;;;;;9.70;5.10;;;;;;;;;;5020652;28;20397;-79
2023/04/26 07:53:12;;;;;;;9.57;5.10;;;;;;;;;;5032733;28;20434;-79
2023/04/26 07:55:38;;;;;;;9.68;3.70;;;;;;;;;;5034094;28;20429;-79
2023/04/26 07:58:04;;;;;;;8.30;3.88;;;;;;;;;;4982719;28;20463;-77
2023/04/26 08:00:30;;;;;;;7.32;3.00;;;;;;;;;;4981433;28;20443;-78
2023/04/26 08:02:56;;;;;;;8.40;2.90;;;;;;;;;;4980912;28;20419;-78
2023/04/26 08:05:22;;;;;;;7.10;2.58;;;;;;;;;;4981222;28;20519;-78
2023/04/26 08:07:48;;;;;;;7.82;2.95;;;;;;;;;;4997372;28;20407;-78
2023/04/26 08:10:14;;;;;;;8.07;3.00;;;;;;;;;;4981174;28;20425;-80
2023/04/26 08:12:40;;;;;;;5.38;2.50;;;;;;;;;;5015299;28;20415;-80
2023/04/26 08:15:07;;;;;;;5.75;2.42;;;;;;;;;;5028169;28;20417;-80
2023/04/26 08:17:33;;;;;;;4.88;2.25;;;;;;;;;;5001795;28;20483;-80
2023/04/26 08:19:59;;;;;;;8.10;2.28;;;;;;;;;;5002029;28;20421;-80
2023/04/26 08:22:26;;;;;;;6.72;2.60;;;;;;;;;;5016275;28;20413;-80
2023/04/26 08:24:54;;;;;;;7.22;2.40;;;;;;;;;;4998115;28;20454;-80
2023/04/26 08:27:21;;;;;;;6.32;2.72;;;;;;;;;;5037338;28;20546;-80
2023/04/26 08:29:47;;;;;;;7.43;2.50;;;;;;;;;;5035607;28;20408;-81
2023/04/26 08:32:13;;;;;;;6.97;2.45;;;;;;;;;;5034029;28;20434;-80
2023/04/26 08:34:39;;;;;;;5.28;2.40;;;;;;;;;;5031022;28;20414;-80
2023/04/26 08:37:08;;;;;;;7.23;2.53;;;;;;;;;;5031969;28;20416;-80
2023/04/26 08:39:34;;;;;;;5.67;2.70;;;;;;;;;;5032537;28;20398;-80
2023/04/26 08:42:07;;;;;;;5.60;2.60;;;;;;;;;;5031234;28;20433;-80
2023/04/26 08:44:35;;;;;;;6.03;2.80;;;;;;;;;;5032791;28;20410;-80
2023/04/26 08:47:03;;;;;;;6.22;3.10;;;;;;;;;;5032567;28;20424;-80
2023/04/26 08:49:39;;;;;;;7.65;3.10;;;;;;;;;;5033366;28;20418;-81
2023/04/26 08:52:07;;;;;;;8.35;3.45;;;;;;;;;;5040416;28;20420;-80
2023/04/26 08:54:34;;;;;;;7.20;3.15;;;;;;;;;;5053943;28;20396;-81
2023/04/26 08:57:01;;;;;;;6.97;2.90;;;;;;;;;;5053682;28;20423;-81
2023/04/26 08:59:28;;;;;;;6.33;2.53;;;;;;;;;;5019870;28;20442;-79
2023/04/26 09:01:54;;;;;;;4.47;2.20;;;;;;;;;;5018710;28;20481;-79
2023/04/26 09:04:20;;;;;;;4.68;2.38;;;;;;;;;;5012971;28;20430;-79
2023/04/26 09:06:47;;;;;;;7.43;3.10;;;;;;;;;;5012935;28;20656;-79
2023/04/26 09:09:16;;;;;;;6.90;2.63;;;;;;;;;;5012744;28;20486;-79
2023/04/26 09:11:58;;;;;;;6.23;2.80;;;;;;;;;;5013434;28;20530;-79
2023/04/26 09:14:25;;;;;;;6.97;2.65;;;;;;;;;;5012596;28;20403;-78
2023/04/26 09:16:52;;;;;;;7.45;2.60;;;;;;;;;;4980210;28;20506;-78
2023/04/26 09:19:18;;;;;;;4.18;2.00;;;;;;;;;;4980050;28;20411;-79
2023/04/26 09:21:45;;;;;;;8.25;2.90;;;;;;;;;;5033523;28;20405;-79
2023/04/26 09:24:11;;;;;;;5.55;2.53;;;;;;;;;;5016069;28;20464;-79
2023/04/26 09:26:37;;;;;;;7.72;2.90;;;;;;;;;;5032330;28;20527;-79
2023/04/26 09:29:17;;;;;;;7.05;2.92;;;;;;;;;;5028623;28;20521;-79
2023/04/26 09:31:44;;;;;;;6.60;3.03;;;;;;;;;;5012236;28;20509;-80
2023/04/26 09:34:11;;;;;;;7.50;2.90;;;;;;;;;;5012446;28;20497;-80
2023/04/26 09:36:46;;;;;;;8.00;3.33;;;;;;;;;;5012367;28;20420;-80
2023/04/26 09:39:13;;;;;;;6.68;3.00;;;;;;;;;;5020809;28;20446;-80
2023/04/26 09:41:45;;;;;;;5.28;2.47;;;;;;;;;;4999283;28;20414;-81
2023/04/26 09:44:22;;;;;;;7.25;2.78;;;;;;;;;;5031927;28;20409;-81
2023/04/26 09:47:17;;;;;;;6.55;2.97;;;;;;;;;;5041132;28;20432;-81
2023/04/26 09:49:49;;;;;;;7.57;3.25;;;;;;;;;;5018946;28;20414;-79
2023/04/26 09:52:15;;;;;;;8.30;3.30;;;;;;;;;;5033210;28;20416;-83
2023/04/26 09:54:44;;;;;;;6.60;3.10;;;;;;;;;;5034466;28;20396;-83
2023/04/26 09:57:11;;;;;;;8.00;3.15;;;;;;;;;;5003700;28;20494;-83
2023/04/26 09:59:42;;;;;;;7.70;3.50;;;;;;;;;;5010731;28;20476;-83
2023/04/26 10:02:21;;;;;;;6.25;3.20;;;;;;;;;;5001224;28;20421;-83
2023/04/26 10:04:54;;;;;;;8.60;3.63;;;;;;;;;;5020612;28;20448;-84
2023/04/26 10:07:21;;;;;;;7.90;3.38;;;;;;;;;;5028329;28;20431;-83
2023/04/26 10:09:47;;;;;;;6.70;3.17;;;;;;;;;;5015199;28;20414;-84
2023/04/26 10:12:17;;;;;;;6.13;3.00;;;;;;;;;;5031422;28;20398;-83
2023/04/26 10:14:43;;;;;;;8.85;3.20;;;;;;;;;;5020197;28;20504;-83
2023/04/26 10:17:10;;;;;;;6.03;3.20;;;;;;;;;;5028061;28;20408;-82
2023/04/26 10:19:37;;;;;;;6.38;3.15;;;;;;;;;;5018691;28;20407;-83
2023/04/26 10:22:15;;;;;;;6.90;3.15;;;;;;;;;;5009116;28;20585;-80
2023/04/26 10:24:43;;;;;;;7.65;3.30;;;;;;;;;;5031583;28;20433;-80
2023/04/26 10:27:09;;;;;;;6.85;3.22;;;;;;;;;;5027839;28;20491;-80
2023/04/26 10:30:06;;;;;;;6.97;3.35;;;;;;;;;;5018647;28;20411;-80
2023/04/26 10:32:32;;;;;;;7.53;3.60;;;;;;;;;;5008037;28;20425;-79
2023/04/26 10:35:18;;;;;;;6.93;3.20;;;;;;;;;;5039256;28;20415;-78
2023/04/26 10:37:59;;;;;;;6.30;3.40;;;;;;;;;;5034800;28;20400;-79
2023/04/26 10:40:31;;;;;;;6.93;3.33;;;;;;;;;;5020852;28;20422;-78
2023/04/26 10:43:13;;;;;;;8.57;3.40;;;;;;;;;;5035685;28;20425;-78
2023/04/26 10:45:40;;;;;;;8.00;3.60;;;;;;;;;;5027766;28;20428;-78
2023/04/26 10:48:18;;;;;;;6.32;3.25;;;;;;;;;;5011258;28;20415;-78
2023/04/26 10:51:11;;;;;;;7.15;3.33;;;;;;;;;;5026738;28;20458;-78
2023/04/26 10:53:46;;;;;;;7.20;3.60;;;;;;;;;;5030516;28;20457;-77
2023/04/26 10:56:27;;;;;;;6.35;3.53;;;;;;;;;;5030892;28;20544;-83
2023/04/26 10:59:10;;;;;;;9.93;3.50;;;;;;;;;;5030845;28;20414;-84
2023/04/26 11:01:36;;;;;;;8.63;3.75;;;;;;;;;;4996509;28;20429;-84
2023/04/26 11:04:09;;;;;;;7.57;3.70;;;;;;;;;;5031051;28;20475;-83
2023/04/26 11:06:56;;;;;;;6.95;3.50;;;;;;;;;;4998603;28;20438;-84
2023/04/26 11:09:48;;;;;;;7.90;3.53;;;;;;;;;;5034892;28;20495;-84
2023/04/26 11:12:15;;;;;;;6.73;3.50;;;;;;;;;;5015024;28;20500;-79
2023/04/26 11:14:41;;;;;;;6.85;3.40;;;;;;;;;;5024230;28;20411;-79
2023/04/26 11:17:11;;;;;;;8.32;3.22;;;;;;;;;;5031466;28;20474;-79
2023/04/26 11:19:38;;;;;;;7.37;3.27;;;;;;;;;;5028299;28;20430;-79
2023/04/26 11:22:06;;;;;;;6.40;3.20;;;;;;;;;;5014672;28;20502;-79
2023/04/26 11:24:35;;;;;;;6.82;3.00;;;;;;;;;;5014626;28;20403;-79
2023/04/26 11:27:01;;;;;;;7.85;2.90;;;;;;;;;;5014635;28;20435;-79
2023/04/26 11:29:28;;;;;;;4.50;2.70;;;;;;;;;;5015147;28;20418;-84
2023/04/26 11:31:55;;;;;;;6.88;3.20;;;;;;;;;;5014748;28;20523;-84
2023/04/26 11:34:34;;;;;;;6.57;3.00;;;;;;;;;;5015516;28;20407;-84
2023/04/26 11:37:01;;;;;;;6.38;3.17;;;;;;;;;;5014611;28;20537;-85
2023/04/26 11:39:27;;;;;;;5.75;3.00;;;;;;;;;;5015642;28;20425;-84
2023/04/26 11:42:08;;;;;;;5.57;3.10;;;;;;;;;;5014861;28;20438;-84
2023/04/26 11:44:34;;;;;;;6.07;3.10;;;;;;;;;;5028421;28;20405;-80
2023/04/26 11:47:02;;;;;;;4.97;2.60;;;;;;;;;;5020637;28;20459;-80
2023/04/26 11:49:28;;;;;;;7.13;3.03;;;;;;;;;;5014226;28;20434;-80
2023/04/26 11:51:55;;;;;;;6.78;3.00;;;;;;;;;;5014088;28;20433;-80
2023/04/26 11:54:36;;;;;;;6.40;3.70;;;;;;;;;;5015358;28;20466;-79
2023/04/26 11:57:13;;;;;;;5.97;3.20;;;;;;;;;;5013145;28;20439;-79
2023/04/26 11:59:39;;;;;;;7.30;3.22;;;;;;;;;;5013888;28;20466;-79
2023/04/26 12:02:09;;;;;;;10.35;3.33;;;;;;;;;;5037762;28;20405;-78
2023/04/26 12:04:36;;;;;;;7.28;3.38;;;;;;;;;;5037057;28;20419;-78
2023/04/26 12:07:03;;;;;;;5.00;3.03;;;;;;;;;;5024124;28;20470;-78
2023/04/26 12:09:32;;;;;;;5.75;3.38;;;;;;;;;;5013984;28;20418;-78
2023/04/26 12:11:59;;;;;;;6.65;3.20;;;;;;;;;;5017858;28;20427;-78
2023/04/26 12:14:36;;;;;;;5.70;3.08;;;;;;;;;;5012252;28;20500;-78
2023/04/26 12:17:03;;;;;;;5.72;2.83;;;;;;;;;;5020954;28;20418;-78
2023/04/26 12:19:39;;;;;;;6.50;2.90;;;;;;;;;;5014331;28;20406;-84
2023/04/26 12:22:07;;;;;;;6.20;3.10;;;;;;;;;;5013825;28;20403;-85
2023/04/26 12:24:34;;;;;;;6.37;3.17;;;;;;;;;;5015591;28;20165;-85
2023/04/26 12:27:04;;;;;;;6.18;3.08;;;;;;;;;;5030189;28;20620;-86
2023/04/26 12:29:31;;;;;;;6.82;3.00;;;;;;;;;;5001121;28;20417;-85
2023/04/26 12:31:57;;;;;;;4.47;3.00;;;;;;;;;;5000914;28;20412;-86
2023/04/26 12:34:24;;;;;;;4.63;3.10;;;;;;;;;;5033119;28;20409;-85
2023/04/26 12:36:50;;;;;;;7.50;3.28;;;;;;;;;;5033065;28;20475;-85
2023/04/26 12:39:16;;;;;;;6.43;3.20;;;;;;;;;;5000516;28;20421;-85
2023/04/26 12:41:42;;;;;;;4.83;2.87;;;;;;;;;;5039656;28;20481;-85
2023/04/26 12:44:10;;;;;;;5.90;3.30;;;;;;;;;;5044987;28;20421;-86
2023/04/26 12:46:36;;;;;;;6.47;3.20;;;;;;;;;;5000486;28;20484;-86
2023/04/26 12:49:03;;;;;;;5.00;3.30;;;;;;;;;;5033065;28;20406;-85
2023/04/26 12:51:29;;;;;;;7.32;3.78;;;;;;;;;;5032959;28;20409;-84
2023/04/26 12:53:55;;;;;;;6.40;4.05;;;;;;;;;;5025813;28;20450;-85
2023/04/26 12:56:21;;;;;;;6.88;4.00;;;;;;;;;;4979809;28;20443;-85
2023/04/26 12:58:48;;;;;;;7.35;4.05;;;;;;;;;;4980483;28;20442;-85
2023/04/26 13:01:15;;;;;;;7.70;4.20;;;;;;;;;;4996140;28;20419;-85
2023/04/26 13:03:41;;;;;;;6.10;4.20;;;;;;;;;;5012321;28;20411;-85
2023/04/26 13:06:08;;;;;;;5.85;3.88;;;;;;;;;;5014283;28;20497;-85
2023/04/26 13:08:34;;;;;;;6.68;4.32;;;;;;;;;;5013141;28;20475;-80
2023/04/26 13:11:00;;;;;;;5.88;4.10;;;;;;;;;;5013940;28;20450;-80
2023/04/26 13:13:26;;;;;;;6.20;4.10;;;;;;;;;;5024655;28;20514;-81
2023/04/26 13:15:52;;;;;;;7.25;3.90;;;;;;;;;;5001886;28;20452;-81
2023/04/26 13:18:18;;;;;;;6.03;3.70;;;;;;;;;;5015942;28;20409;-80
2023/04/26 13:20:45;;;;;;;8.00;3.75;;;;;;;;;;5015753;28;20496;-80
2023/04/26 13:23:11;;;;;;;5.80;3.83;;;;;;;;;;5027111;28;20423;-80
2023/04/26 13:25:37;;;;;;;7.53;3.72;;;;;;;;;;4996499;28;20431;-85
2023/04/26 13:28:04;;;;;;;6.45;3.88;;;;;;;;;;5013750;28;20478;-85
2023/04/26 13:30:30;;;;;;;7.43;3.65;;;;;;;;;;5012505;28;20417;-85
2023/04/26 13:32:56;;;;;;;6.90;3.50;;;;;;;;;;5020219;28;20432;-86
2023/04/26 13:35:22;;;;;;;6.57;3.40;;;;;;;;;;5032125;28;20401;-86
2023/04/26 13:37:48;;;;;;;6.20;3.43;;;;;;;;;;5032029;28;20451;-86
2023/04/26 13:40:15;;;;;;;6.32;3.47;;;;;;;;;;4999594;28;20405;-85
2023/04/26 13:42:42;;;;;;;5.20;3.40;;;;;;;;;;4987957;28;20418;-85
2023/04/26 13:45:09;;;;;;;6.90;3.50;;;;;;;;;;5012258;28;20419;-85
2023/04/26 13:47:35;;;;;;;6.15;3.28;;;;;;;;;;4996799;28;20417;-86
2023/04/26 13:50:01;;;;;;;6.10;3.10;;;;;;;;;;5019131;28;20412;-85
2023/04/26 13:52:27;;;;;;;7.22;3.20;;;;;;;;;;5002462;28;20402;-84
2023/04/26 13:54:53;;;;;;;5.03;3.20;;;;;;;;;;5012316;28;20419;-83
2023/04/26 13:57:20;;;;;;;5.43;3.20;;;;;;;;;;5012168;28;20419;-85
2023/04/26 13:59:46;;;;;;;4.68;3.22;;;;;;;;;;5011963;28;20426;-80
2023/04/26 14:02:12;;;;;;;6.88;3.35;;;;;;;;;;5011338;28;20419;-80
2023/04/26 14:04:40;;;;;;;5.82;3.10;;;;;;;;;;5012083;28;20459;-80
2023/04/26 14:07:06;;;;;;;7.70;3.60;;;;;;;;;;5012074;28;20427;-80
2023/04/26 14:09:32;;;;;;;6.53;3.10;;;;;;;;;;4995317;28;20411;-80
2023/04/26 14:11:58;;;;;;;6.60;3.20;;;;;;;;;;5011839;28;20427;-80
2023/04/26 14:14:25;;;;;;;6.50;3.20;;;;;;;;;;4995748;28;20415;-80
2023/04/26 14:16:51;;;;;;;5.20;2.90;;;;;;;;;;5011861;28;20461;-80
2023/04/26 14:19:17;;;;;;;7.35;3.00;;;;;;;;;;5013121;28;20407;-79
2023/04/26 14:21:43;;;;;;;4.47;3.10;;;;;;;;;;5031617;28;20440;-79
2023/04/26 14:24:10;;;;;;;7.50;3.10;;;;;;;;;;5031618;28;20399;-79
2023/04/26 14:26:36;;;;;;;7.35;3.53;;;;;;;;;;4999007;28;20488;-80
2023/04/26 14:29:03;;;;;;;4.75;3.00;;;;;;;;;;4997544;28;20421;-80
2023/04/26 14:31:30;;;;;;;6.53;3.40;;;;;;;;;;5015660;28;20413;-80
2023/04/26 14:33:56;;;;;;;4.32;3.03;;;;;;;;;;5031773;28;20420;-80
2023/04/26 14:36:22;;;;;;;4.43;3.20;;;;;;;;;;5031492;28;20409;-80